Flight Track Log - Related Links

Times and Time Zones

All times are in EDT time to prevent confusion due to time zone crossing. See the N500NM flight status page for this flight to view local times or setup timezone preferences in your user account.

Time Position Orientation Groundspeed Altitude Reporting Facility
EDT Latitude Longitude Course Direction KTS MPH feet Rate Location/Type
Fri 04:11:00 PM 25.6528 -80.4108 98° East 113 130 600  Level Miami Center
Fri 04:11:30 PM 25.6511 -80.3969 98° East 104 120 1,000 1,109 Climbing Miami Center
Fri 04:12:32 PM 25.6353 -80.3644 118° Southeast 107 123 2,300 1,068 Climbing Miami Center
Fri 04:13:28 PM 25.6189 -80.3456 134° Southeast 106 122 3,100 923 Climbing Miami Center
Fri 04:14:29 PM 25.5944 -80.3264 145° Southeast 111 128 4,100 1,031 Climbing Miami Center
Fri 04:15:36 PM 25.5956 -80.3656 272° West 128 147 5,300 1,033 Climbing Miami Center
Fri 04:16:31 PM 25.6222 -80.3825 330° Northwest 131 151 6,200 1,082 Climbing Miami Center
Fri 04:17:38 PM 25.6639 -80.3858 356° North 124 143 7,500 1,070 Climbing Miami Center
Fri 04:18:40 PM 25.6994 -80.3892 355° North 130 150 8,500 878 Climbing Miami Center
Fri 04:19:41 PM 25.7369 -80.3881 North 132 152 9,300 720 Climbing Miami Center
Fri 04:20:20 PM 25.7600 -80.3886 359° North 118 136 9,700 750 Climbing Miami Center
Fri 04:20:37 PM 25.7639 -80.4028 287° West 128 147 10,000 500 Climbing Miami Center
Fri 04:21:20 PM 25.7886 -80.4150 336° Northwest 130 150 10,200 492 Climbing Miami Center
Fri 04:21:38 PM 25.7903 -80.4289 278° West 141 162 10,500 700 Climbing Miami Center
Fri 04:22:20 PM 25.8172 -80.4411 338° Northwest 142 163 10,900 647 Climbing Miami Center
Fri 04:23:20 PM 25.8478 -80.4675 322° Northwest 142 163 11,600 650 Climbing Miami Center
Fri 04:24:20 PM 25.8764 -80.4936 321° Northwest 147 169 12,200 650 Climbing Miami Center
Fri 04:25:20 PM 25.9072 -80.5200 322° Northwest 147 169 12,900 700 Climbing Miami Center
Fri 04:26:20 PM 25.9356 -80.5464 320° Northwest 142 163 13,600 600 Climbing Miami Center
Fri 04:27:20 PM 25.9664 -80.5750 320° Northwest 142 163 14,100 550 Climbing Miami Center
Fri 04:28:20 PM 25.9969 -80.6014 322° Northwest 137 158 14,700 600 Climbing Miami Center
Fri 04:29:20 PM 26.0297 -80.6303 322° Northwest 137 158 15,300 550 Climbing Miami Center
Fri 04:30:20 PM 26.0603 -80.6567 322° Northwest 137 158 15,800 500 Climbing Miami Center
Fri 04:31:20 PM 26.0950 -80.6853 324° Northwest 137 158 16,300 550 Climbing Miami Center
Fri 04:32:20 PM 26.1278 -80.7142 322° Northwest 143 165 16,900 600 Climbing Miami Center
Fri 04:33:20 PM 26.1644 -80.7431 325° Northwest 154 177 17,500 550 Climbing Miami Center
Fri 04:34:20 PM 26.1969 -80.7767 317° Northwest 154 177 18,000 250 Climbing Miami Center
Fri 04:35:20 PM 26.2339 -80.8081 323° Northwest 159 183 18,000  Level Miami Center
Fri 04:36:20 PM 26.2683 -80.8439 317° Northwest 159 183 18,000  Level Miami Center
Fri 04:37:20 PM 26.3133 -80.8825 322° Northwest 172 198 18,000  Level Miami Center
Fri 04:38:20 PM 26.3478 -80.9114 323° Northwest 178 205 18,000  Level Miami Center
Fri 04:39:20 PM 26.3906 -80.9500 321° Northwest 178 205 18,000  Level Miami Center
Fri 04:40:20 PM 26.4275 -80.9814 323° Northwest 178 205 18,000  Level Miami Center
Fri 04:41:20 PM 26.4786 -81.0133 331° Northwest 188 216 18,000  Level Miami Center
Fri 04:42:20 PM 26.5197 -81.0403 330° Northwest 188 216 18,000  Level Miami Center
Fri 04:43:20 PM 26.5711 -81.0700 333° Northwest 188 216 18,000  Level Miami Center
Fri 04:44:20 PM 26.6161 -81.0994 330° Northwest 181 208 18,000  Level Miami Center
Fri 04:45:20 PM 26.6611 -81.1289 330° Northwest 181 208 18,000  Level Miami Center
Fri 04:46:20 PM 26.7083 -81.1633 327° Northwest 186 214 18,000  Level Miami Center
Fri 04:47:20 PM 26.7553 -81.1931 331° Northwest 186 214 18,000  Level Miami Center
Fri 04:48:20 PM 26.8006 -81.2203 332° Northwest 186 214 18,000  Level Miami Center
Fri 04:49:20 PM 26.8414 -81.2497 327° Northwest 186 214 18,000  Level Miami Center
Fri 04:50:20 PM 26.8864 -81.2792 330° Northwest 186 214 18,000  Level Miami Center
Fri 04:51:20 PM 26.9333 -81.3089 331° Northwest 186 214 18,000  Level Miami Center
Fri 04:52:20 PM 26.9783 -81.3411 327° Northwest 186 214 18,000  Level Miami Center
Fri 04:53:20 PM 27.0236 -81.3683 332° Northwest 186 214 18,000  Level Miami Center
Fri 04:54:20 PM 27.0664 -81.4003 326° Northwest 186 214 18,000  Level Miami Center
Fri 04:55:20 PM 27.1114 -81.4300 330° Northwest 186 214 18,000  Level Miami Center
Fri 04:56:20 PM 27.1561 -81.4622 327° Northwest 186 214 18,000  Level Miami Center
Fri 04:57:20 PM 27.2014 -81.4897 332° Northwest 186 214 18,000  Level Miami Center
Fri 04:58:20 PM 27.2553 -81.4964 354° North 186 214 18,000  Level Miami Center
Fri 04:59:20 PM 27.3097 -81.4964 360° North 186 214 18,000  Level Miami Center
Fri 05:00:20 PM 27.3639 -81.4986 358° North 186 214 18,000  Level Miami Center
Fri 05:01:20 PM 27.4133 -81.5169 342° North 186 214 18,000  Level Miami Center
Fri 05:02:20 PM 27.4628 -81.5375 340° North 186 214 18,000  Level Miami Center
Fri 05:03:20 PM 27.5164 -81.5561 343° North 186 214 18,000  Level Miami Center
Fri 05:04:20 PM 27.5592 -81.5908 324° Northwest 186 214 18,000  Level Miami Center
Fri 05:05:20 PM 27.5975 -81.6297 318° Northwest 186 214 18,000  Level Miami Center
Fri 05:06:20 PM 27.6358 -81.6711 316° Northwest 186 214 18,000  Level Miami Center
Fri 05:07:20 PM 27.6742 -81.7103 318° Northwest 186 214 18,000  Level Miami Center
Fri 05:08:20 PM 27.7186 -81.7519 320° Northwest 186 214 18,000  Level Miami Center
Fri 05:09:20 PM 27.7589 -81.7914 319° Northwest 186 214 18,000  Level Miami Center
Fri 05:10:20 PM 27.7972 -81.8306 318° Northwest 186 214 18,000  Level Miami Center
Fri 05:11:20 PM 27.8397 -81.8675 322° Northwest 186 214 18,000  Level Miami Center
Fri 05:12:20 PM 27.8803 -81.9069 319° Northwest 191 220 18,000  Level Miami Center
Fri 05:16:03 PM 28.0219 -82.0461 319° Northwest 189 217 18,000  Level Jacksonville Center
Fri 05:17:03 PM 28.0639 -82.0833 322° Northwest 189 217 18,000  Level Jacksonville Center
Fri 05:18:03 PM 28.1058 -82.1208 322° Northwest 194 223 18,000  Level Jacksonville Center
Fri 05:19:03 PM 28.1478 -82.1581 322° Northwest 194 223 18,000  Level Jacksonville Center
Fri 05:20:03 PM 28.1878 -82.1956 320° Northwest 194 223 18,000  Level Jacksonville Center
Fri 05:21:03 PM 28.2297 -82.2328 322° Northwest 189 217 18,000  Level Jacksonville Center
Fri 05:22:03 PM 28.2717 -82.2703 322° Northwest 189 217 18,000  Level Jacksonville Center
Fri 05:23:03 PM 28.3114 -82.3056 322° Northwest 189 217 18,000  Level Jacksonville Center
Fri 05:24:03 PM 28.3533 -82.3431 322° Northwest 189 217 18,000  Level Jacksonville Center
Fri 05:25:03 PM 28.3931 -82.3806 320° Northwest 189 217 18,000  Level Jacksonville Center
Fri 05:26:03 PM 28.4350 -82.4181 322° Northwest 189 217 18,000  Level Jacksonville Center
Fri 05:27:03 PM 28.4747 -82.4556 320° Northwest 184 212 18,000  Level Jacksonville Center
Fri 05:28:03 PM 28.5125 -82.4981 315° West 189 217 18,000  Level Jacksonville Center
Fri 05:29:03 PM 28.5542 -82.5356 322° Northwest 189 217 18,000  Level Jacksonville Center
Fri 05:30:03 PM 28.5919 -82.5758 317° Northwest 189 217 18,000  Level Jacksonville Center
Fri 05:31:03 PM 28.6317 -82.6136 320° Northwest 189 217 18,000  Level Jacksonville Center
Fri 05:32:03 PM 28.6672 -82.6536 315° West 189 217 18,000  Level Jacksonville Center
Fri 05:33:03 PM 28.7092 -82.6983 317° Northwest 184 212 18,000  Level Jacksonville Center
Fri 05:34:03 PM 28.7489 -82.7364 320° Northwest 184 212 18,000  Level Jacksonville Center
Fri 05:35:03 PM 28.7883 -82.7764 318° Northwest 189 217 18,000  Level Jacksonville Center
Fri 05:36:03 PM 28.8261 -82.8144 319° Northwest 189 217 18,000  Level Jacksonville Center
Fri 05:37:03 PM 28.8636 -82.8547 317° Northwest 189 217 18,000  Level Jacksonville Center
Fri 05:38:03 PM 28.9011 -82.8903 320° Northwest 189 217 18,000  Level Jacksonville Center
Fri 05:39:03 PM 28.9408 -82.9331 317° Northwest 189 217 18,000  Level Jacksonville Center
Fri 05:40:03 PM 28.9783 -82.9708 319° Northwest 184 212 18,000  Level Jacksonville Center
Fri 05:41:03 PM 29.0181 -83.0114 318° Northwest 184 212 18,000  Level Jacksonville Center
Fri 05:42:03 PM 29.0556 -83.0494 318° Northwest 184 212 18,000  Level Jacksonville Center
Fri 05:43:03 PM 29.0953 -83.0897 318° Northwest 184 212 18,000  Level Jacksonville Center
Fri 05:44:03 PM 29.1306 -83.1303 315° West 184 212 18,000  Level Jacksonville Center
Fri 05:45:03 PM 29.1703 -83.1683 320° Northwest 184 212 18,000  Level Jacksonville Center
Fri 05:46:03 PM 29.2097 -83.2089 318° Northwest 184 212 18,000  Level Jacksonville Center
Fri 05:47:03 PM 29.2472 -83.2494 317° Northwest 184 212 18,000  Level Jacksonville Center
Fri 05:48:03 PM 29.2867 -83.2878 320° Northwest 184 212 18,000  Level Jacksonville Center
Fri 05:49:03 PM 29.3242 -83.3286 316° Northwest 184 212 18,000  Level Jacksonville Center
Fri 05:50:03 PM 29.3636 -83.3667 320° Northwest 184 212 18,000  Level Jacksonville Center
Fri 05:51:03 PM 29.4011 -83.4075 317° Northwest 184 212 18,000  Level Jacksonville Center
Fri 05:52:03 PM 29.4386 -83.4458 318° Northwest 184 212 18,000  Level Jacksonville Center
Fri 05:53:03 PM 29.4758 -83.4867 316° Northwest 184 212 18,000  Level Jacksonville Center
Fri 05:54:03 PM 29.5156 -83.5250 320° Northwest 184 212 18,000  Level Jacksonville Center
Fri 05:55:03 PM 29.5528 -83.5658 316° Northwest 184 212 18,000  Level Jacksonville Center
Fri 05:56:03 PM 29.5903 -83.6042 318° Northwest 189 217 18,000  Level Jacksonville Center
Fri 05:57:03 PM 29.6275 -83.6453 316° Northwest 184 212 18,000  Level Jacksonville Center
Fri 05:58:03 PM 29.6650 -83.6836 318° Northwest 184 212 18,000  Level Jacksonville Center
Fri 05:59:03 PM 29.7022 -83.7222 318° Northwest 184 212 18,000  Level Jacksonville Center
Fri 06:00:03 PM 29.7394 -83.7633 316° Northwest 184 212 18,000  Level Jacksonville Center
Fri 06:01:03 PM 29.7789 -83.7994 322° Northwest 184 212 18,000  Level Jacksonville Center
Fri 06:02:03 PM 29.8142 -83.8406 315° West 184 212 18,000  Level Jacksonville Center
Fri 06:03:03 PM 29.8494 -83.8767 318° Northwest 184 212 18,000  Level Jacksonville Center
Fri 06:04:03 PM 29.8867 -83.9156 318° Northwest 184 212 18,000  Level Jacksonville Center
Fri 06:05:03 PM 29.9239 -83.9542 318° Northwest 184 212 18,000  Level Jacksonville Center
Fri 06:06:03 PM 29.9633 -83.9956 318° Northwest 184 212 18,000  Level Jacksonville Center
Fri 06:07:03 PM 29.9983 -84.0342 316° Northwest 184 212 18,000  Level Jacksonville Center
Fri 06:08:03 PM 30.0356 -84.0731 318° Northwest 184 212 18,000  Level Jacksonville Center
Fri 06:09:03 PM 30.0747 -84.1144 318° Northwest 184 212 18,000  Level Jacksonville Center
Fri 06:10:03 PM 30.1119 -84.1556 316° Northwest 184 212 18,000  Level Jacksonville Center
Fri 06:11:03 PM 30.1472 -84.1922 318° Northwest 184 212 18,000  Level Jacksonville Center
Fri 06:12:03 PM 30.1886 -84.2336 319° Northwest 184 212 18,000  Level Jacksonville Center
Fri 06:13:03 PM 30.2214 -84.2725 314° West 184 212 18,000  Level Jacksonville Center
Fri 06:14:03 PM 30.2628 -84.3114 321° Northwest 184 212 18,000  Level Jacksonville Center
Fri 06:15:03 PM 30.2978 -84.3528 314° West 184 212 18,000  Level Jacksonville Center
Fri 06:16:03 PM 30.3350 -84.3919 318° Northwest 184 212 18,000  Level Jacksonville Center
Fri 06:17:03 PM 30.3719 -84.4336 316° Northwest 184 212 18,000  Level Jacksonville Center
Fri 06:18:03 PM 30.4092 -84.4725 318° Northwest 184 212 18,000  Level Jacksonville Center
Fri 06:19:03 PM 30.4483 -84.5142 317° Northwest 184 212 18,000  Level Jacksonville Center
Fri 06:20:03 PM 30.4853 -84.5533 318° Northwest 184 212 18,000  Level Jacksonville Center
Fri 06:21:03 PM 30.5225 -84.5928 318° Northwest 184 212 18,000  Level Jacksonville Center
Fri 06:22:03 PM 30.5575 -84.6319 316° Northwest 184 212 18,000  Level Jacksonville Center
Fri 06:23:03 PM 30.5964 -84.6711 319° Northwest 184 212 18,000  Level Jacksonville Center
Fri 06:24:03 PM 30.6375 -84.7178 316° Northwest 184 212 18,000  Level Jacksonville Center
Fri 06:25:03 PM 30.6747 -84.7572 318° Northwest 184 212 18,000  Level Jacksonville Center
Fri 06:26:03 PM 30.7136 -84.7967 319° Northwest 184 212 18,000  Level Jacksonville Center
Fri 06:27:03 PM 30.7486 -84.8361 316° Northwest 184 212 18,000  Level Jacksonville Center
Fri 06:28:03 PM 30.7856 -84.8778 316° Northwest 184 212 18,000  Level Jacksonville Center
Fri 06:29:03 PM 30.8225 -84.9150 319° Northwest 184 212 18,000  Level Jacksonville Center
Fri 06:30:03 PM 30.8594 -84.9569 316° Northwest 184 212 18,000  Level Jacksonville Center
Fri 06:31:03 PM 30.8944 -84.9939 318° Northwest 184 212 18,000  Level Jacksonville Center
Fri 06:32:03 PM 30.9314 -85.0336 317° Northwest 184 212 18,000  Level Jacksonville Center
Fri 06:33:03 PM 30.9661 -85.0756 314° West 179 206 18,000  Level Jacksonville Center
Fri 06:34:03 PM 31.0031 -85.1103 321° Northwest 179 206 18,000  Level Jacksonville Center
Fri 06:35:03 PM 31.0400 -85.1500 317° Northwest 179 206 18,000  Level Jacksonville Center
Fri 06:36:03 PM 31.0767 -85.1897 317° Northwest 179 206 18,000  Level Jacksonville Center
Fri 06:37:03 PM 31.1136 -85.2317 316° Northwest 179 206 18,000  Level Jacksonville Center
Fri 06:38:03 PM 31.1464 -85.2689 316° Northwest 174 200 18,000  Level Jacksonville Center
Fri 06:39:03 PM 31.1831 -85.3064 319° Northwest 169 194 18,000  Level Jacksonville Center
Fri 06:40:03 PM 31.2181 -85.3411 320° Northwest 169 194 18,000  Level Jacksonville Center
Fri 06:41:03 PM 31.2528 -85.3833 314° West 169 194 18,000  Level Jacksonville Center
Fri 06:42:46 PM 31.3128 -85.4508 316° Northwest 173 199 18,000  Level Atlanta Center
Fri 06:43:46 PM 31.3500 -85.4906 318° Northwest 178 205 18,000  Level Atlanta Center
Fri 06:44:46 PM 31.3869 -85.5325 316° Northwest 178 205 18,000  Level Atlanta Center
Fri 06:45:46 PM 31.4219 -85.5694 318° Northwest 172 198 18,000  Level Atlanta Center
Fri 06:46:46 PM 31.4569 -85.6092 316° Northwest 172 198 18,000  Level Atlanta Center
Fri 06:47:46 PM 31.4919 -85.6486 316° Northwest 172 198 18,000  Level Atlanta Center
Fri 06:48:46 PM 31.5269 -85.6881 316° Northwest 172 198 18,000  Level Atlanta Center
Fri 06:49:46 PM 31.5639 -85.7278 318° Northwest 172 198 18,000  Level Atlanta Center
Fri 06:50:46 PM 31.5989 -85.7675 316° Northwest 172 198 18,000  Level Atlanta Center
Fri 06:51:46 PM 31.6358 -85.8072 318° Northwest 172 198 18,000  Level Atlanta Center
Fri 06:52:46 PM 31.6728 -85.8469 318° Northwest 172 198 18,000  Level Atlanta Center
Fri 06:53:46 PM 31.7078 -85.8867 316° Northwest 172 198 18,000  Level Atlanta Center
Fri 06:54:46 PM 31.7322 -85.9239 308° West 166 191 18,000  Level Atlanta Center
Fri 06:55:46 PM 31.7733 -85.9639 320° Northwest 166 191 18,000  Level Atlanta Center
Fri 06:56:46 PM 31.8103 -86.0036 318° Northwest 173 199 18,000  Level Atlanta Center
Fri 06:57:46 PM 31.8472 -86.0436 317° Northwest 173 199 18,000 -100 Level Atlanta Center
Fri 06:58:46 PM 31.8883 -86.0911 316° Northwest 178 205 17,800 -400 Descending Atlanta Center
Fri 06:59:46 PM 31.9292 -86.1361 317° Northwest 184 212 17,200 -600 Descending Atlanta Center
Fri 07:00:46 PM 31.9703 -86.1811 317° Northwest 191 220 16,600 -600 Descending Atlanta Center
Fri 07:01:46 PM 32.0131 -86.2286 317° Northwest 197 227 16,000 -600 Descending Atlanta Center
Fri 07:02:46 PM 32.0542 -86.2761 316° Northwest 203 234 15,400 -600 Descending Atlanta Center
Fri 07:03:46 PM 32.0992 -86.3264 317° Northwest 203 234 14,800 -550 Descending Atlanta Center
Fri 07:04:46 PM 32.1358 -86.3689 316° Northwest 203 234 14,300 -550 Descending Atlanta Center
Fri 07:05:46 PM 32.1786 -86.4167 317° Northwest 208 239 13,700 -650 Descending Atlanta Center
Fri 07:06:46 PM 32.2197 -86.4619 317° Northwest 208 239 13,000 -650 Descending Atlanta Center
Fri 07:07:46 PM 32.2606 -86.5072 317° Northwest 208 239 12,400 -550 Descending Atlanta Center
Fri 07:08:46 PM 32.3014 -86.5528 317° Northwest 203 234 11,900 -550 Descending Atlanta Center
Fri 07:09:46 PM 32.3422 -86.5981 317° Northwest 203 234 11,300 -600 Descending Atlanta Center
Fri 07:10:46 PM 32.3808 -86.6433 315° West 196 226 10,700 -600 Descending Atlanta Center
Fri 07:11:46 PM 32.4194 -86.6889 315° West 196 226 10,100 -600 Descending Atlanta Center
Fri 07:12:46 PM 32.4583 -86.7319 317° Northwest 196 226 9,500 -600 Descending Atlanta Center
Fri 07:13:46 PM 32.4969 -86.7750 317° Northwest 196 226 8,900 -600 Descending Atlanta Center
Fri 07:14:46 PM 32.5356 -86.8206 315° West 196 226 8,300 -450 Descending Atlanta Center
Fri 07:15:46 PM 32.5742 -86.8636 317° Northwest 196 226 8,000 -150 Descending Atlanta Center
Fri 07:16:46 PM 32.6089 -86.9042 315° West 191 220 8,000  Level Atlanta Center
Fri 07:17:46 PM 32.6433 -86.9422 317° Northwest 180 207 8,000  Level Atlanta Center
Fri 07:18:46 PM 32.6781 -86.9803 317° Northwest 175 201 8,000  Level Atlanta Center
Fri 07:19:46 PM 32.7103 -87.0211 313° West 170 196 8,000  Level Atlanta Center
Fri 07:20:46 PM 32.7450 -87.0617 316° Northwest 170 196 8,000  Level Atlanta Center
Fri 07:21:20 PM 32.7669 -87.0919 311° West 174 200 8,000 -100 Level Atlanta Center
Fri 07:21:46 PM 32.7794 -87.0975 340° North 170 196 7,900 -387 Descending Atlanta Center
Fri 07:21:51 PM 32.7833 -87.1100 290° West 178 205 7,800 -554 Descending Atlanta Center
Fri 07:22:51 PM 32.8219 -87.1533 317° Northwest 187 215 7,300 -522 Descending Atlanta Center
Fri 07:23:46 PM 32.8567 -87.1842 323° Northwest 175 201 6,800 -627 Descending Atlanta Center
Fri 07:23:58 PM 32.8644 -87.2042 295° West 196 226 6,600 -600 Descending Atlanta Center
Fri 07:24:46 PM 32.8931 -87.2325 320° Northwest 186 214 6,200 -590 Descending Atlanta Center
Fri 07:24:59 PM 32.9050 -87.2478 313° West 190 219 6,000 -200 Descending Atlanta Center
Fri 07:25:46 PM 32.9314 -87.2736 321° Northwest 186 214 6,000  Level Atlanta Center
Fri 07:25:59 PM 32.9414 -87.2911 304° West 188 216 6,000  Level Atlanta Center
Fri 07:26:46 PM 32.9658 -87.3169 318° Northwest 186 214 6,000 98 Level Atlanta Center
Fri 07:27:00 PM 32.9758 -87.3322 308° West 176 203 6,100  Climbing Atlanta Center
Fri 07:27:46 PM 33.0003 -87.3553 322° Northwest 181 208 6,000 -100 Descending Atlanta Center
Fri 07:28:00 PM 33.0103 -87.3756 300° West 175 201 6,000 -600 Level Atlanta Center
Fri 07:28:46 PM 33.0428 -87.4039 324° Northwest 181 208 5,400 -787 Descending Atlanta Center
Fri 07:29:01 PM 33.0486 -87.4167 299° West 188 216 5,200 -800 Descending Atlanta Center
Fri 07:29:46 PM 33.0811 -87.4500 319° Northwest 191 220 4,600 -806 Descending Atlanta Center
Fri 07:30:08 PM 33.0931 -87.4728 302° West 201 231 4,300 -800 Descending Atlanta Center
Fri 07:30:46 PM 33.1217 -87.4964 325° Northwest 191 220 3,800 -800 Descending Atlanta Center
Fri 07:31:08 PM 33.1317 -87.5142 304° West 191 220 3,500 -623 Descending Atlanta Center
Fri 07:32:03 PM 33.1772 -87.5258 348° North 202 232 3,000 -470 Descending Atlanta Center
Fri 07:33:03 PM 33.2156 -87.4925 36° Northeast 174 200 2,600 -595 Descending Atlanta Center
Fri 07:34:04 PM 33.2586 -87.4544 36° Northeast 186 214 1,800 -375 Descending Atlanta Center
Fri 07:35:11 PM 33.2911 -87.4856 321° Northwest 160 184 1,800  Level Atlanta Center
Fri 07:36:05 PM 33.2961 -87.5256 279° West 148 170 1,800 -157 Level Atlanta Center
Fri 07:37:06 PM 33.2703 -87.5544 223° Southwest 124 143 1,500 -331 Descending Atlanta Center
Fri 07:38:12 PM 33.2486 -87.5833 228° Southwest 106 122 1,100 -198 Descending Atlanta Center
Fri 07:39:07 PM 33.2464 -87.5858 223° Southwest 106 122 1,100  Level Atlanta Center

Login

Don't have an account? Register now (free) for customized features, flight alerts, and more!